createdAt,value
2023-05-14T00:01:03.276Z,97563.20
2023-05-14T00:03:30.065Z,97559.40
2023-05-14T00:05:56.802Z,97553.80
2023-05-14T00:08:23.385Z,97550.40
2023-05-14T00:10:50.035Z,97548.60
2023-05-14T00:13:16.639Z,97551.20
2023-05-14T00:15:43.683Z,97547.60
2023-05-14T00:18:12.390Z,97551.60
2023-05-14T00:20:39.535Z,97545.20
2023-05-14T00:23:06.160Z,97545.00
2023-05-14T00:25:32.778Z,97544.20
2023-05-14T00:27:59.638Z,97543.20
2023-05-14T00:30:26.316Z,97539.40
2023-05-14T00:32:53.626Z,97541.60
2023-05-14T00:35:21.666Z,97536.80
2023-05-14T00:37:48.560Z,97539.80
2023-05-14T00:40:15.534Z,97543.00
2023-05-14T00:42:42.335Z,97541.80
2023-05-14T00:45:09.714Z,97542.20
2023-05-14T00:47:39.375Z,97539.60
2023-05-14T00:50:07.276Z,97535.80
2023-05-14T00:52:34.267Z,97533.40
2023-05-14T00:55:04.651Z,97535.60
2023-05-14T00:57:31.836Z,97535.00
2023-05-14T00:59:59.560Z,97530.20
2023-05-14T01:02:26.533Z,97525.60
2023-05-14T01:04:54.366Z,97525.20
2023-05-14T01:07:43.746Z,97523.40
2023-05-14T01:10:40.310Z,97523.20
2023-05-14T01:13:40.515Z,97520.40
2023-05-14T01:16:14.237Z,97521.80
2023-05-14T01:18:44.037Z,97522.60
2023-05-14T01:21:35.886Z,97525.80
2023-05-14T01:24:02.718Z,97525.60
2023-05-14T01:26:31.386Z,97514.60
2023-05-14T01:29:28.181Z,97520.00
2023-05-14T01:31:57.417Z,97517.80
2023-05-14T01:34:28.276Z,97516.60
2023-05-14T01:36:57.297Z,97515.80
2023-05-14T01:39:26.645Z,97510.00
2023-05-14T01:41:55.237Z,97506.60
2023-05-14T01:44:22.541Z,97504.80
2023-05-14T01:46:49.192Z,97511.40
2023-05-14T01:49:18.119Z,97507.60
2023-05-14T01:51:45.534Z,97512.00
2023-05-14T01:54:12.292Z,97505.00
2023-05-14T01:56:38.889Z,97504.80
2023-05-14T01:59:05.502Z,97499.60
2023-05-14T02:01:33.881Z,97503.60
2023-05-14T02:04:01.261Z,97508.40
2023-05-14T02:06:27.966Z,97506.60
2023-05-14T02:08:55.824Z,97503.40
2023-05-14T02:11:22.672Z,97496.80
2023-05-14T02:13:49.308Z,97493.80
2023-05-14T02:16:16.012Z,97492.40
2023-05-14T02:18:42.784Z,97493.80
2023-05-14T02:21:09.429Z,97495.40
2023-05-14T02:23:41.536Z,97493.20
2023-05-14T02:26:10.799Z,97492.00
2023-05-14T02:28:37.421Z,97482.80
2023-05-14T02:31:04.189Z,97480.20
2023-05-14T02:33:31.006Z,97472.20
2023-05-14T02:35:57.769Z,97465.20
2023-05-14T02:38:24.420Z,97469.00
2023-05-14T02:40:51.134Z,97471.80
2023-05-14T02:43:17.706Z,97475.80
2023-05-14T02:45:44.382Z,97471.80
2023-05-14T02:48:11.441Z,97465.20
2023-05-14T02:50:38.083Z,97472.20
2023-05-14T02:53:04.784Z,97474.00
2023-05-14T02:55:31.630Z,97480.00
2023-05-14T02:57:58.393Z,97477.60
2023-05-14T03:00:25.332Z,97480.40
2023-05-14T03:02:52.860Z,97470.40
2023-05-14T03:05:20.661Z,97476.20
2023-05-14T03:07:47.342Z,97474.40
2023-05-14T03:10:13.949Z,97464.00
2023-05-14T03:12:40.632Z,97462.40
2023-05-14T03:15:08.753Z,97472.00
2023-05-14T03:17:35.545Z,97474.00
2023-05-14T03:20:03.572Z,97470.20
2023-05-14T03:22:30.093Z,97464.20
2023-05-14T03:24:56.941Z,97463.00
2023-05-14T03:27:23.591Z,97463.00
2023-05-14T03:29:50.152Z,97462.40
2023-05-14T03:32:18.213Z,97457.00
2023-05-14T03:34:44.922Z,97456.20
2023-05-14T03:37:11.976Z,97457.60
2023-05-14T03:39:38.605Z,97461.20
2023-05-14T03:42:05.515Z,97467.40
2023-05-14T03:44:32.099Z,97465.40
2023-05-14T03:46:58.792Z,97461.40
2023-05-14T03:49:25.586Z,97459.00
2023-05-14T03:51:52.177Z,97459.00
2023-05-14T03:54:18.836Z,97462.40
2023-05-14T03:56:45.987Z,97458.40
2023-05-14T03:59:13.216Z,97456.00
2023-05-14T04:01:39.819Z,97457.20
2023-05-14T04:04:06.983Z,97451.20
2023-05-14T04:06:34.005Z,97457.00
2023-05-14T04:09:01.952Z,97456.60
2023-05-14T04:11:28.789Z,97460.40
2023-05-14T04:13:55.721Z,97456.20
2023-05-14T04:16:22.528Z,97457.20
2023-05-14T04:18:49.370Z,97458.20
2023-05-14T04:21:16.052Z,97461.60
2023-05-14T04:23:42.677Z,97460.60
2023-05-14T04:26:09.245Z,97464.20
2023-05-14T04:28:35.842Z,97464.80
2023-05-14T04:31:02.473Z,97463.80
2023-05-14T04:33:29.058Z,97460.40
2023-05-14T04:35:55.780Z,97460.80
2023-05-14T04:38:23.236Z,97456.80
2023-05-14T04:40:49.860Z,97454.00
2023-05-14T04:43:17.538Z,97451.00
2023-05-14T04:45:44.313Z,97452.60
2023-05-14T04:48:11.033Z,97451.80
2023-05-14T04:50:37.634Z,97448.60
2023-05-14T04:53:04.244Z,97445.80
2023-05-14T04:55:31.130Z,97442.80
2023-05-14T04:57:57.706Z,97447.20
2023-05-14T05:00:24.927Z,97452.40
2023-05-14T05:02:51.783Z,97448.40
2023-05-14T05:05:18.716Z,97448.20
2023-05-14T05:07:45.324Z,97446.60
2023-05-14T05:10:12.271Z,97448.00
2023-05-14T05:12:39.138Z,97447.80
2023-05-14T05:15:07.164Z,97447.00
2023-05-14T05:17:33.775Z,97439.80
2023-05-14T05:20:00.717Z,97441.60
2023-05-14T05:22:27.819Z,97441.00
2023-05-14T05:24:54.518Z,97443.00
2023-05-14T05:27:22.027Z,97443.00
2023-05-14T05:29:48.684Z,97442.00
2023-05-14T05:32:15.619Z,97436.00
2023-05-14T05:34:42.616Z,97439.40
2023-05-14T05:37:12.693Z,97438.20
2023-05-14T05:39:39.887Z,97435.40
2023-05-14T05:42:07.588Z,97442.40
2023-05-14T05:44:34.505Z,97443.40
2023-05-14T05:47:01.195Z,97437.20
2023-05-14T05:49:28.004Z,97436.60
2023-05-14T05:51:54.624Z,97437.00
2023-05-14T05:54:23.950Z,97437.80
2023-05-14T05:56:50.984Z,97437.00
2023-05-14T05:59:17.559Z,97439.60
2023-05-14T06:01:44.252Z,97437.60
2023-05-14T06:04:11.041Z,97441.20
2023-05-14T06:06:37.676Z,97441.40
2023-05-14T06:09:04.704Z,97440.40
2023-05-14T06:11:31.354Z,97438.60
2023-05-14T06:13:57.969Z,97433.40
2023-05-14T06:16:24.712Z,97427.40
2023-05-14T06:18:52.789Z,97433.80
2023-05-14T06:21:19.534Z,97431.60
2023-05-14T06:23:46.241Z,97430.20
2023-05-14T06:26:13.143Z,97432.80
2023-05-14T06:28:39.838Z,97433.20
2023-05-14T06:31:06.501Z,97433.80
2023-05-14T06:33:33.142Z,97435.80
2023-05-14T06:36:05.529Z,97435.40
2023-05-14T06:38:32.458Z,97433.00
2023-05-14T06:40:59.120Z,97429.80
2023-05-14T06:43:26.077Z,97423.80
2023-05-14T06:45:53.467Z,97429.00
2023-05-14T06:48:20.900Z,97422.00
2023-05-14T06:50:49.677Z,97420.40
2023-05-14T06:53:16.615Z,97422.00
2023-05-14T06:55:43.481Z,97421.60
2023-05-14T06:58:10.317Z,97422.60
2023-05-14T07:00:36.999Z,97416.40
2023-05-14T07:03:03.845Z,97415.20
2023-05-14T07:05:30.609Z,97411.00
2023-05-14T07:07:57.713Z,97411.20
2023-05-14T07:10:25.201Z,97405.60
2023-05-14T07:12:52.158Z,97409.80
2023-05-14T07:15:19.030Z,97403.60
2023-05-14T07:17:45.943Z,97403.40
2023-05-14T07:20:13.230Z,97403.00
2023-05-14T07:22:39.960Z,97398.80
2023-05-14T07:25:07.743Z,97400.20
2023-05-14T07:27:34.388Z,97397.20
2023-05-14T07:30:01.039Z,97392.00
2023-05-14T07:32:27.770Z,97397.40
2023-05-14T07:34:54.409Z,97391.60
2023-05-14T07:37:24.128Z,97395.40
2023-05-14T07:39:50.923Z,97391.80
2023-05-14T07:42:28.328Z,97387.80
2023-05-14T07:45:02.540Z,97388.40
2023-05-14T07:47:29.834Z,97389.20
2023-05-14T07:49:57.988Z,97385.40
2023-05-14T07:52:25.357Z,97379.20
2023-05-14T07:54:52.422Z,97384.40
2023-05-14T07:57:20.056Z,97380.00
2023-05-14T07:59:48.220Z,97378.00
2023-05-14T08:02:17.127Z,97379.60
2023-05-14T08:04:44.550Z,97381.40
2023-05-14T08:07:11.736Z,97385.20
2023-05-14T08:09:39.093Z,97381.40
2023-05-14T08:12:07.518Z,97384.40
2023-05-14T08:14:34.579Z,97380.40
2023-05-14T08:17:01.333Z,97383.00
2023-05-14T08:19:28.519Z,97388.60
2023-05-14T08:21:55.247Z,97384.40
2023-05-14T08:24:21.870Z,97382.60
2023-05-14T08:26:48.781Z,97382.40
2023-05-14T08:29:16.453Z,97373.40
2023-05-14T08:31:43.882Z,97369.80
2023-05-14T08:34:10.783Z,97367.20
2023-05-14T08:36:39.152Z,97363.20
2023-05-14T08:39:07.753Z,97356.00
2023-05-14T08:41:35.378Z,97358.00
2023-05-14T08:44:14.912Z,97354.80
2023-05-14T08:46:42.068Z,97351.00
2023-05-14T08:49:37.752Z,97354.40
2023-05-14T08:52:05.160Z,97353.60
2023-05-14T08:54:32.627Z,97355.20
2023-05-14T08:56:59.566Z,97364.80
2023-05-14T08:59:26.403Z,97359.00
2023-05-14T09:01:56.258Z,97359.20
2023-05-14T09:04:25.356Z,97357.00
2023-05-14T09:06:55.655Z,97364.20
2023-05-14T09:09:23.861Z,97367.00
2023-05-14T09:11:54.575Z,97366.60
2023-05-14T09:14:23.285Z,97358.80
2023-05-14T09:16:51.485Z,97355.40
2023-05-14T09:19:19.509Z,97362.20
2023-05-14T09:21:49.460Z,97367.80
2023-05-14T09:24:25.362Z,97371.00
2023-05-14T09:26:54.783Z,97375.80
2023-05-14T09:29:23.812Z,97380.40
2023-05-14T09:31:52.035Z,97378.80
2023-05-14T09:34:30.792Z,97377.00
2023-05-14T09:37:02.190Z,97375.60
2023-05-14T09:39:30.457Z,97367.40
2023-05-14T09:41:57.773Z,97363.40
2023-05-14T09:44:26.124Z,97365.80
2023-05-14T09:46:53.906Z,97367.00
2023-05-14T09:49:21.481Z,97358.80
2023-05-14T09:51:51.824Z,97357.40
2023-05-14T09:54:18.664Z,97354.60
2023-05-14T09:56:45.473Z,97357.80
2023-05-14T09:59:12.563Z,97360.00
2023-05-14T10:01:43.147Z,97354.60
2023-05-14T10:04:12.055Z,97358.60
2023-05-14T10:06:42.141Z,97360.60
2023-05-14T10:09:16.109Z,97363.60
2023-05-14T10:11:45.528Z,97362.20
2023-05-14T10:14:38.655Z,97358.60
2023-05-14T10:17:07.746Z,97356.60
2023-05-14T10:19:37.656Z,97352.40
2023-05-14T10:22:08.038Z,97356.40
2023-05-14T10:24:35.967Z,97350.60
2023-05-14T10:27:02.904Z,97353.00
2023-05-14T10:29:38.460Z,97354.40
2023-05-14T10:32:07.966Z,97353.00
2023-05-14T10:34:38.879Z,97350.20
2023-05-14T10:37:09.979Z,97351.40
2023-05-14T10:39:46.985Z,97354.00
2023-05-14T10:42:27.088Z,97351.40
2023-05-14T10:45:01.644Z,97350.80
2023-05-14T10:47:29.512Z,97343.80
2023-05-14T10:50:00.165Z,97344.00
2023-05-14T10:52:26.983Z,97341.40
2023-05-14T10:55:02.890Z,97341.00
2023-05-14T10:57:32.149Z,97342.00
2023-05-14T11:00:01.304Z,97342.20
2023-05-14T11:02:31.835Z,97340.60
2023-05-14T11:05:15.483Z,97335.00
2023-05-14T11:07:48.808Z,97330.20
2023-05-14T11:10:21.964Z,97332.60
2023-05-14T11:12:51.021Z,97328.00
2023-05-14T11:15:21.671Z,97326.80
2023-05-14T11:17:50.249Z,97325.60
2023-05-14T11:20:18.238Z,97322.00
2023-05-14T11:22:48.261Z,97316.20
2023-05-14T11:25:15.693Z,97315.00
2023-05-14T11:27:47.785Z,97319.20
2023-05-14T11:30:18.267Z,97310.60
2023-05-14T11:32:50.147Z,97307.20
2023-05-14T11:35:18.464Z,97305.00
2023-05-14T11:37:54.598Z,97306.40
2023-05-14T11:40:21.724Z,97300.60
2023-05-14T11:42:52.794Z,97312.20
2023-05-14T11:45:29.976Z,97312.00
2023-05-14T11:47:56.758Z,97308.80
2023-05-14T11:50:23.789Z,97301.60
2023-05-14T11:52:51.071Z,97303.20
2023-05-14T11:55:18.134Z,97298.60
2023-05-14T11:57:45.222Z,97291.60
2023-05-14T12:00:21.450Z,97289.00
2023-05-14T12:02:52.067Z,97286.00
2023-05-14T12:05:19.209Z,97279.20
2023-05-14T12:07:47.330Z,97273.80
2023-05-14T12:10:13.954Z,97270.60
2023-05-14T12:12:40.604Z,97270.00
2023-05-14T12:15:20.471Z,97267.60
2023-05-14T12:17:51.976Z,97262.00
2023-05-14T12:20:19.168Z,97257.80
2023-05-14T12:22:45.873Z,97260.20
2023-05-14T12:25:14.046Z,97252.80
2023-05-14T12:27:44.708Z,97251.40
2023-05-14T12:32:46.824Z,97255.40
2023-05-14T12:35:13.704Z,97255.40
2023-05-14T12:37:40.574Z,97248.20
2023-05-14T12:40:09.666Z,97243.80
2023-05-14T12:42:36.700Z,97242.00
2023-05-14T12:45:07.279Z,97238.80
2023-05-14T12:47:34.885Z,97239.80
2023-05-14T12:50:02.050Z,97232.40
2023-05-14T12:52:37.441Z,97230.80
2023-05-14T12:55:10.111Z,97231.80
2023-05-14T12:57:39.259Z,97227.40
2023-05-14T13:00:14.166Z,97232.40
2023-05-14T13:02:42.741Z,97229.40
2023-05-14T13:05:13.534Z,97228.80
2023-05-14T13:07:40.925Z,97222.60
2023-05-14T13:10:08.632Z,97219.00
2023-05-14T13:12:35.344Z,97229.00
2023-05-14T13:15:02.435Z,97227.60
2023-05-14T13:17:29.177Z,97229.20
2023-05-14T13:19:56.164Z,97226.00
2023-05-14T13:22:22.961Z,97229.60
2023-05-14T13:24:49.560Z,97223.80
2023-05-14T13:27:16.303Z,97223.20
2023-05-14T13:29:43.012Z,97223.20
2023-05-14T13:32:10.011Z,97223.00
2023-05-14T13:34:36.683Z,97224.60
2023-05-14T13:37:04.010Z,97218.20
2023-05-14T13:39:30.836Z,97216.80
2023-05-14T13:41:57.669Z,97212.40
2023-05-14T13:44:24.564Z,97209.60
2023-05-14T13:46:51.405Z,97207.20
2023-05-14T13:49:18.901Z,97205.00
2023-05-14T13:51:46.010Z,97205.00
2023-05-14T13:54:12.845Z,97202.00
2023-05-14T13:56:39.490Z,97191.20
2023-05-14T13:59:06.391Z,97200.20
2023-05-14T14:01:33.350Z,97202.40
2023-05-14T14:04:00.387Z,97200.80
2023-05-14T14:06:27.542Z,97198.20
2023-05-14T14:08:54.413Z,97196.60
2023-05-14T14:11:21.976Z,97200.80
2023-05-14T14:13:48.676Z,97201.80
2023-05-14T14:16:16.265Z,97201.80
2023-05-14T14:18:43.262Z,97191.00
2023-05-14T14:21:10.711Z,97191.20
2023-05-14T14:23:37.446Z,97193.80
2023-05-14T14:26:04.227Z,97187.40
2023-05-14T14:28:31.368Z,97189.60
2023-05-14T14:30:58.484Z,97184.60
2023-05-14T14:33:25.582Z,97181.80
2023-05-14T14:35:52.922Z,97185.60
2023-05-14T14:38:19.593Z,97187.40
2023-05-14T14:40:46.839Z,97187.60
2023-05-14T14:43:13.480Z,97184.60
2023-05-14T14:45:40.121Z,97185.00
2023-05-14T14:48:26.081Z,97177.60
2023-05-14T14:50:53.926Z,97177.80
2023-05-14T14:53:22.496Z,97181.80
2023-05-14T14:55:50.661Z,97176.60
2023-05-14T14:58:19.825Z,97177.00
2023-05-14T15:00:47.964Z,97176.20
2023-05-14T15:03:15.737Z,97175.40
2023-05-14T15:05:42.899Z,97179.20
2023-05-14T15:08:10.409Z,97176.60
2023-05-14T15:10:37.985Z,97173.00
2023-05-14T15:13:06.795Z,97170.20
2023-05-14T15:15:35.251Z,97164.60
2023-05-14T15:18:04.356Z,97163.80
2023-05-14T15:20:31.270Z,97152.20
2023-05-14T15:22:58.065Z,97144.60
2023-05-14T15:25:26.700Z,97138.80
2023-05-14T15:27:53.519Z,97142.20
2023-05-14T15:30:20.438Z,97139.00
2023-05-14T15:32:47.174Z,97141.40
2023-05-14T15:35:13.999Z,97144.60
2023-05-14T15:37:44.734Z,97140.00
2023-05-14T15:40:12.520Z,97139.00
2023-05-14T15:42:43.004Z,97136.80
2023-05-14T15:45:12.583Z,97136.00
2023-05-14T15:47:40.729Z,97146.80
2023-05-14T15:50:08.577Z,97142.60
2023-05-14T15:52:36.484Z,97141.40
2023-05-14T15:55:05.301Z,97141.20
2023-05-14T15:57:32.394Z,97140.60
2023-05-14T15:59:59.151Z,97141.20
2023-05-14T16:02:25.838Z,97136.60
2023-05-14T16:04:52.470Z,97129.00
2023-05-14T16:07:19.178Z,97124.00
2023-05-14T16:09:45.882Z,97117.40
2023-05-14T16:12:12.648Z,97121.20
2023-05-14T16:14:41.994Z,97116.80
2023-05-14T16:17:09.262Z,97114.20
2023-05-14T16:19:36.238Z,97111.40
2023-05-14T16:22:02.991Z,97105.40
2023-05-14T16:24:29.822Z,97106.40
2023-05-14T16:26:56.829Z,97105.40
2023-05-14T16:29:23.492Z,97101.80
2023-05-14T16:31:50.123Z,97099.80
2023-05-14T16:34:16.742Z,97102.00
2023-05-14T16:36:43.520Z,97097.60
2023-05-14T16:39:11.467Z,97097.00
2023-05-14T16:41:38.051Z,97096.00
2023-05-14T16:44:04.949Z,97095.40
2023-05-14T16:46:32.259Z,97094.40
2023-05-14T16:48:59.347Z,97096.40
2023-05-14T16:51:26.055Z,97089.60
2023-05-14T16:53:54.689Z,97086.40
2023-05-14T16:56:22.540Z,97089.00
2023-05-14T16:58:49.353Z,97089.20
2023-05-14T17:01:16.016Z,97083.00
2023-05-14T17:03:43.541Z,97079.00
2023-05-14T17:06:10.567Z,97078.80
2023-05-14T17:08:37.234Z,97076.80
2023-05-14T17:11:05.981Z,97077.00
2023-05-14T17:13:34.055Z,97075.80
2023-05-14T17:16:00.988Z,97081.20
2023-05-14T17:18:28.400Z,97075.40
2023-05-14T17:20:55.097Z,97071.00
2023-05-14T17:23:21.769Z,97069.00
2023-05-14T17:25:48.371Z,97075.40
2023-05-14T17:28:15.040Z,97074.60
2023-05-14T17:30:41.685Z,97076.40
2023-05-14T17:33:08.505Z,97074.60
2023-05-14T17:35:36.441Z,97069.00
2023-05-14T17:38:03.623Z,97069.80
2023-05-14T17:40:30.469Z,97070.20
2023-05-14T17:42:57.170Z,97064.20
2023-05-14T17:45:24.257Z,97063.20
2023-05-14T17:47:51.548Z,97060.00
2023-05-14T17:50:19.327Z,97061.20
2023-05-14T17:52:46.255Z,97062.80
2023-05-14T17:55:13.473Z,97062.60
2023-05-14T17:57:41.975Z,97058.80
2023-05-14T18:00:09.439Z,97054.40
2023-05-14T18:02:39.529Z,97054.80
2023-05-14T18:05:06.896Z,97053.40
2023-05-14T18:07:34.865Z,97049.80
2023-05-14T18:10:01.404Z,97051.00
2023-05-14T18:12:29.079Z,97052.60
2023-05-14T18:14:55.795Z,97052.60
2023-05-14T18:17:22.806Z,97046.80
2023-05-14T18:19:49.422Z,97046.60
2023-05-14T18:22:16.028Z,97049.40
2023-05-14T18:24:44.274Z,97049.60
2023-05-14T18:27:11.156Z,97048.40
2023-05-14T18:29:37.883Z,97046.40
2023-05-14T18:32:05.246Z,97051.00
2023-05-14T18:34:31.796Z,97055.00
2023-05-14T18:36:58.497Z,97056.80
2023-05-14T18:39:25.060Z,97055.80
2023-05-14T18:41:52.117Z,97058.00
2023-05-14T18:44:18.846Z,97049.60
2023-05-14T18:46:46.978Z,97056.00
2023-05-14T18:49:13.749Z,97063.20
2023-05-14T18:51:40.317Z,97062.80
2023-05-14T18:54:06.908Z,97067.40
2023-05-14T18:56:34.715Z,97066.80
2023-05-14T18:59:01.297Z,97070.20
2023-05-14T19:01:28.143Z,97073.60
2023-05-14T19:03:54.999Z,97073.80
2023-05-14T19:06:21.959Z,97073.60
2023-05-14T19:08:48.573Z,97072.60
2023-05-14T19:11:16.290Z,97074.60
2023-05-14T19:13:46.731Z,97076.20
2023-05-14T19:16:13.595Z,97074.60
2023-05-14T19:18:40.460Z,97075.40
2023-05-14T19:21:07.115Z,97075.20
2023-05-14T19:23:33.740Z,97071.80
2023-05-14T19:26:01.117Z,97073.00
2023-05-14T19:28:27.939Z,97075.60
2023-05-14T19:30:54.527Z,97072.60
2023-05-14T19:33:21.489Z,97071.40
2023-05-14T19:35:49.396Z,97069.80
2023-05-14T19:38:15.975Z,97071.60
2023-05-14T19:40:43.669Z,97068.60
2023-05-14T19:43:11.907Z,97065.80
2023-05-14T19:45:39.406Z,97061.60
2023-05-14T19:48:06.783Z,97058.20
2023-05-14T19:50:37.017Z,97057.80
2023-05-14T19:53:04.699Z,97059.40
2023-05-14T19:55:31.386Z,97055.60
2023-05-14T19:57:58.021Z,97048.80
2023-05-14T20:00:25.070Z,97048.40
2023-05-14T20:02:51.894Z,97047.00
2023-05-14T20:05:18.628Z,97050.20
2023-05-14T20:07:47.144Z,97049.40
2023-05-14T20:10:14.232Z,97047.20
2023-05-14T20:12:40.831Z,97036.20
2023-05-14T20:15:08.161Z,97040.20
2023-05-14T20:17:34.810Z,97042.40
2023-05-14T20:20:01.670Z,97039.60
2023-05-14T20:22:28.348Z,97039.80
2023-05-14T20:24:54.893Z,97037.20
2023-05-14T20:27:22.075Z,97032.60
2023-05-14T20:29:51.314Z,97033.00
2023-05-14T20:32:18.066Z,97025.20
2023-05-14T20:34:44.664Z,97030.80
2023-05-14T20:37:11.963Z,97017.40
2023-05-14T20:39:38.570Z,97024.00
2023-05-14T20:42:06.256Z,97019.80
2023-05-14T20:44:32.811Z,97018.00
2023-05-14T20:46:59.580Z,97014.00
2023-05-14T20:49:26.173Z,97016.20
2023-05-14T20:51:52.801Z,97012.80
2023-05-14T20:54:19.360Z,97010.20
2023-05-14T20:56:45.993Z,97008.00
2023-05-14T20:59:12.543Z,97004.40
2023-05-14T21:01:39.162Z,97006.00
2023-05-14T21:04:06.092Z,97001.40
2023-05-14T21:06:32.841Z,97002.40
2023-05-14T21:08:59.420Z,96999.80
2023-05-14T21:11:26.049Z,96988.60
2023-05-14T21:13:52.817Z,96992.00
2023-05-14T21:16:20.313Z,96985.20
2023-05-14T21:18:47.167Z,96982.80
2023-05-14T21:21:13.833Z,96973.80
2023-05-14T21:23:40.455Z,96972.60
2023-05-14T21:26:07.073Z,96966.80
2023-05-14T21:28:33.669Z,96967.20
2023-05-14T21:31:00.255Z,96967.80
2023-05-14T21:33:26.823Z,96964.00
2023-05-14T21:35:53.494Z,96964.20
2023-05-14T21:38:20.748Z,96965.00
2023-05-14T21:40:47.336Z,96962.60
2023-05-14T21:43:13.992Z,96962.20
2023-05-14T21:45:40.652Z,96959.60
2023-05-14T21:48:08.014Z,96958.20
2023-05-14T21:50:34.718Z,96954.00
2023-05-14T21:53:01.356Z,96953.00
2023-05-14T21:55:28.919Z,96952.00
2023-05-14T21:57:55.677Z,96957.40
2023-05-14T22:00:25.070Z,96956.40
2023-05-14T22:02:55.482Z,96957.20
2023-05-14T22:05:22.451Z,96956.00
2023-05-14T22:07:49.458Z,96953.40
2023-05-14T22:10:17.050Z,96946.80
2023-05-14T22:12:45.990Z,96945.40
2023-05-14T22:15:12.926Z,96947.60
2023-05-14T22:17:39.607Z,96948.60
2023-05-14T22:20:07.397Z,96949.60
2023-05-14T22:22:34.272Z,96948.20
2023-05-14T22:25:00.977Z,96949.60
2023-05-14T22:27:27.616Z,96943.80
2023-05-14T22:29:55.268Z,96944.60
2023-05-14T22:32:22.110Z,96941.80
2023-05-14T22:34:48.957Z,96949.60
2023-05-14T22:37:16.081Z,96948.20
2023-05-14T22:39:43.426Z,96946.40
2023-05-14T22:42:11.090Z,96946.80
2023-05-14T22:44:37.750Z,96948.20
2023-05-14T22:47:05.222Z,96944.80
2023-05-14T22:49:31.950Z,96943.60
2023-05-14T22:51:58.801Z,96940.00
2023-05-14T22:54:25.399Z,96934.00
2023-05-14T22:56:52.043Z,96929.20
2023-05-14T22:59:18.653Z,96929.00
2023-05-14T23:01:45.463Z,96924.60
2023-05-14T23:04:12.132Z,96920.60
2023-05-14T23:06:39.002Z,96920.60
2023-05-14T23:09:05.598Z,96916.00
2023-05-14T23:11:32.258Z,96914.60
2023-05-14T23:13:58.834Z,96908.80
2023-05-14T23:16:26.006Z,96910.60
2023-05-14T23:18:52.850Z,96906.00
2023-05-14T23:21:19.660Z,96905.80
2023-05-14T23:23:46.736Z,96902.00
2023-05-14T23:26:13.466Z,96902.00
2023-05-14T23:28:40.179Z,96896.20
2023-05-14T23:31:06.994Z,96901.00
2023-05-14T23:33:33.549Z,96898.40
2023-05-14T23:36:00.307Z,96891.60
2023-05-14T23:38:27.425Z,96892.60
2023-05-14T23:40:54.049Z,96891.60
2023-05-14T23:43:20.834Z,96888.80
2023-05-14T23:45:47.456Z,96887.20
2023-05-14T23:48:14.722Z,96887.60
2023-05-14T23:50:41.290Z,96884.20
2023-05-14T23:53:07.911Z,96881.60
2023-05-14T23:55:34.613Z,96880.60
2023-05-14T23:58:01.449Z,96875.60
